Airfield :







YOU CAN JOIN US ON...

 
LOGIN :

Register | Disclaimer

   EN    FR    IT 

 









Legend :    VFR   Marginal VFR   IFR   Intensive IFR   Very Intensive IFR
Visi :
Ceiling :
>= 8 km
>= 3000ft
5 to 8 km
1000 to 3000 ft
1500m to 5 km
500 to 1000 ft
800 to 1500m
200 to 500 ft
< 800m
< 200 ft
Symbols :   Thunderstorms  Fog  Heavy snow  Heavy precipitations  Wind > 20 kt






- Airport Elevation : 74 ft
- IATA code : STX


TISX - Henri E Rohlsen

CURRENT METAR :
  • 212353Z 10010KT 9SM FEW032 28/23 A3003 RMK AO2 SLP168 T02830233 10311 20283 53017

EXPIRED METARs :
  • 212253Z 10015KT 9SM SCT028 SCT040 28/23 A3001 RMK AO2 SLP161 T02830233
  • 212244Z 10010KT 8SM BKN028 BKN038 BKN045 28/24 A3001 RMK AO2 T02830244
  • 212153Z 11009KT 8SM FEW030 28/23 A2999 RMK AO2 SLP154 T02830233

TAF TISX
Valid from the 22 at 00:00 until the 23 at 00:00 UTC


212339Z 2200/2224 09010KT P6SM FEW028 SCT050
FM220400 VRB05KT P6SM VCSH SCT025 SCT040
FM221400 10016KT P6SM SCT030 SCT050
TJZS FIR / North America



MET'MAP, your aeronautical weather chart ! - Copyright ORBIFLY December 2007 - Disclaimer

ORBIFLY MET'MAP TEAM :

Programming & Development : Alexandra Zaïnal
Concept & original design : Baudouin d'Aumeries
Assistance for programming : Marc-Olivier Méhu
Technical & hardware support : Manuel Goepfert

Contact : metmap@orbifly.com




SOURCES & CREDITS :

   NOAA